sensor_id;sensor_type;location;lat;lon;timestamp;P1;durP1;ratioP1;P2;durP2;ratioP2
44434;SDS011;30138;20.964;105.830;2022-07-26T00:00:20;35.15;;;19.77;;
44434;SDS011;30138;20.964;105.830;2022-07-26T00:05:28;40.55;;;20.33;;
44434;SDS011;30138;20.964;105.830;2022-07-26T00:10:36;39.17;;;20.27;;
44434;SDS011;30138;20.964;105.830;2022-07-26T00:15:44;36.37;;;21.57;;
44434;SDS011;30138;20.964;105.830;2022-07-26T00:20:52;32.78;;;20.80;;
44434;SDS011;30138;20.964;105.830;2022-07-26T00:26:00;30.60;;;20.40;;
44434;SDS011;30138;20.964;105.830;2022-07-26T00:31:06;35.85;;;20.42;;
44434;SDS011;30138;20.964;105.830;2022-07-26T00:36:13;47.28;;;21.23;;
44434;SDS011;30138;20.964;105.830;2022-07-26T00:41:21;37.60;;;22.25;;
44434;SDS011;30138;20.964;105.830;2022-07-26T00:46:27;33.25;;;21.08;;
44434;SDS011;30138;20.964;105.830;2022-07-26T00:51:33;35.78;;;21.65;;
44434;SDS011;30138;20.964;105.830;2022-07-26T00:56:42;35.95;;;20.73;;
44434;SDS011;30138;20.964;105.830;2022-07-26T01:01:49;37.95;;;20.60;;
44434;SDS011;30138;20.964;105.830;2022-07-26T01:06:54;37.42;;;21.98;;
44434;SDS011;30138;20.964;105.830;2022-07-26T01:12:03;34.20;;;21.00;;
44434;SDS011;30138;20.964;105.830;2022-07-26T01:17:09;34.05;;;20.67;;
44434;SDS011;30138;20.964;105.830;2022-07-26T01:22:18;33.63;;;20.88;;
44434;SDS011;30138;20.964;105.830;2022-07-26T01:27:24;47.72;;;22.60;;
44434;SDS011;30138;20.964;105.830;2022-07-26T01:32:30;64.18;;;27.77;;
44434;SDS011;30138;20.964;105.830;2022-07-26T01:37:39;62.33;;;29.63;;
44434;SDS011;30138;20.964;105.830;2022-07-26T01:42:44;63.53;;;26.60;;
44434;SDS011;30138;20.964;105.830;2022-07-26T01:47:50;53.45;;;24.13;;
44434;SDS011;30138;20.964;105.830;2022-07-26T01:52:58;44.45;;;21.42;;
44434;SDS011;30138;20.964;105.830;2022-07-26T01:58:04;38.20;;;19.20;;
44434;SDS011;30138;20.964;105.830;2022-07-26T02:03:11;36.28;;;18.38;;
44434;SDS011;30138;20.964;105.830;2022-07-26T02:08:20;32.80;;;19.08;;
44434;SDS011;30138;20.964;105.830;2022-07-26T02:13:26;35.10;;;19.40;;
44434;SDS011;30138;20.964;105.830;2022-07-26T02:18:33;31.52;;;18.58;;
44434;SDS011;30138;20.964;105.830;2022-07-26T02:23:42;30.95;;;20.08;;
44434;SDS011;30138;20.964;105.830;2022-07-26T02:28:48;40.50;;;20.67;;
44434;SDS011;30138;20.964;105.830;2022-07-26T02:33:54;36.10;;;20.25;;
44434;SDS011;30138;20.964;105.830;2022-07-26T02:39:02;34.67;;;20.02;;
44434;SDS011;30138;20.964;105.830;2022-07-26T02:44:09;31.08;;;18.85;;
44434;SDS011;30138;20.964;105.830;2022-07-26T02:49:14;28.42;;;18.70;;
44434;SDS011;30138;20.964;105.830;2022-07-26T02:54:23;30.20;;;18.05;;
44434;SDS011;30138;20.964;105.830;2022-07-26T02:59:29;29.45;;;16.52;;
44434;SDS011;30138;20.964;105.830;2022-07-26T03:04:36;28.30;;;17.58;;
44434;SDS011;30138;20.964;105.830;2022-07-26T03:09:44;29.42;;;16.63;;
44434;SDS011;30138;20.964;105.830;2022-07-26T03:14:51;30.40;;;16.90;;
44434;SDS011;30138;20.964;105.830;2022-07-26T03:19:57;23.00;;;17.40;;
44434;SDS011;30138;20.964;105.830;2022-07-26T03:25:06;31.45;;;18.35;;
44434;SDS011;30138;20.964;105.830;2022-07-26T03:30:13;24.75;;;17.17;;
44434;SDS011;30138;20.964;105.830;2022-07-26T03:35:19;28.20;;;17.55;;
44434;SDS011;30138;20.964;105.830;2022-07-26T03:40:27;32.60;;;18.73;;
44434;SDS011;30138;20.964;105.830;2022-07-26T03:45:33;32.08;;;17.85;;
44434;SDS011;30138;20.964;105.830;2022-07-26T03:50:40;28.60;;;17.40;;
44434;SDS011;30138;20.964;105.830;2022-07-26T03:55:48;27.33;;;17.13;;
44434;SDS011;30138;20.964;105.830;2022-07-26T04:01:11;31.80;;;17.13;;
44434;SDS011;30138;20.964;105.830;2022-07-26T04:06:17;26.67;;;17.67;;
44434;SDS011;30138;20.964;105.830;2022-07-26T04:11:25;26.20;;;16.83;;
44434;SDS011;30138;20.964;105.830;2022-07-26T04:16:32;25.00;;;17.58;;
44434;SDS011;30138;20.964;105.830;2022-07-26T04:21:39;21.30;;;15.73;;
44434;SDS011;30138;20.964;105.830;2022-07-26T04:26:46;23.38;;;16.00;;
44434;SDS011;30138;20.964;105.830;2022-07-26T04:31:52;23.33;;;14.73;;
44434;SDS011;30138;20.964;105.830;2022-07-26T04:36:58;23.05;;;15.88;;
44434;SDS011;30138;20.964;105.830;2022-07-26T04:42:06;22.20;;;15.02;;
44434;SDS011;30138;20.964;105.830;2022-07-26T04:47:12;27.35;;;15.63;;
44434;SDS011;30138;20.964;105.830;2022-07-26T04:52:18;23.10;;;15.10;;
44434;SDS011;30138;20.964;105.830;2022-07-26T04:57:26;20.75;;;14.30;;
44434;SDS011;30138;20.964;105.830;2022-07-26T05:02:32;20.60;;;14.93;;
44434;SDS011;30138;20.964;105.830;2022-07-26T05:07:39;21.02;;;14.95;;
44434;SDS011;30138;20.964;105.830;2022-07-26T05:12:47;21.02;;;14.20;;
44434;SDS011;30138;20.964;105.830;2022-07-26T05:17:54;22.77;;;14.63;;
44434;SDS011;30138;20.964;105.830;2022-07-26T05:23:05;19.92;;;13.80;;
44434;SDS011;30138;20.964;105.830;2022-07-26T05:28:14;23.60;;;14.35;;
44434;SDS011;30138;20.964;105.830;2022-07-26T05:33:20;18.23;;;13.65;;
44434;SDS011;30138;20.964;105.830;2022-07-26T05:38:26;20.80;;;14.07;;
44434;SDS011;30138;20.964;105.830;2022-07-26T05:43:35;20.15;;;14.13;;
44434;SDS011;30138;20.964;105.830;2022-07-26T05:48:44;18.98;;;14.25;;
44434;SDS011;30138;20.964;105.830;2022-07-26T05:53:51;17.50;;;14.10;;
44434;SDS011;30138;20.964;105.830;2022-07-26T05:58:59;19.60;;;13.70;;
44434;SDS011;30138;20.964;105.830;2022-07-26T06:04:05;22.63;;;14.38;;
44434;SDS011;30138;20.964;105.830;2022-07-26T06:09:11;17.27;;;13.50;;
44434;SDS011;30138;20.964;105.830;2022-07-26T06:14:19;19.92;;;14.50;;
44434;SDS011;30138;20.964;105.830;2022-07-26T06:19:25;17.73;;;15.05;;
44434;SDS011;30138;20.964;105.830;2022-07-26T06:24:31;20.63;;;15.18;;
44434;SDS011;30138;20.964;105.830;2022-07-26T06:29:38;21.25;;;15.00;;
44434;SDS011;30138;20.964;105.830;2022-07-26T06:34:44;20.20;;;14.50;;
44434;SDS011;30138;20.964;105.830;2022-07-26T06:39:52;19.83;;;14.90;;
44434;SDS011;30138;20.964;105.830;2022-07-26T06:45:01;20.60;;;15.25;;
44434;SDS011;30138;20.964;105.830;2022-07-26T06:50:10;19.63;;;15.75;;
44434;SDS011;30138;20.964;105.830;2022-07-26T06:55:17;17.60;;;15.77;;
44434;SDS011;30138;20.964;105.830;2022-07-26T07:00:25;21.05;;;16.65;;
44434;SDS011;30138;20.964;105.830;2022-07-26T07:05:31;18.52;;;15.63;;
44434;SDS011;30138;20.964;105.830;2022-07-26T07:10:38;18.92;;;16.70;;
44434;SDS011;30138;20.964;105.830;2022-07-26T07:15:46;21.52;;;17.13;;
44434;SDS011;30138;20.964;105.830;2022-07-26T07:20:53;21.50;;;17.15;;
44434;SDS011;30138;20.964;105.830;2022-07-26T07:25:59;21.30;;;17.20;;
44434;SDS011;30138;20.964;105.830;2022-07-26T07:31:06;20.60;;;16.63;;
44434;SDS011;30138;20.964;105.830;2022-07-26T07:36:13;20.92;;;16.92;;
44434;SDS011;30138;20.964;105.830;2022-07-26T07:41:19;23.10;;;17.45;;
44434;SDS011;30138;20.964;105.830;2022-07-26T07:46:28;19.23;;;16.63;;
44434;SDS011;30138;20.964;105.830;2022-07-26T07:51:34;19.52;;;17.48;;
44434;SDS011;30138;20.964;105.830;2022-07-26T07:56:41;21.08;;;17.83;;
44434;SDS011;30138;20.964;105.830;2022-07-26T08:01:49;20.95;;;18.00;;
44434;SDS011;30138;20.964;105.830;2022-07-26T08:06:55;20.38;;;18.13;;
44434;SDS011;30138;20.964;105.830;2022-07-26T08:12:02;21.88;;;18.63;;
44434;SDS011;30138;20.964;105.830;2022-07-26T08:17:10;19.40;;;17.38;;
44434;SDS011;30138;20.964;105.830;2022-07-26T08:22:16;23.60;;;17.23;;
44434;SDS011;30138;20.964;105.830;2022-07-26T08:27:23;20.95;;;18.08;;
44434;SDS011;30138;20.964;105.830;2022-07-26T08:32:31;22.55;;;18.10;;
44434;SDS011;30138;20.964;105.830;2022-07-26T08:37:37;23.48;;;17.95;;
44434;SDS011;30138;20.964;105.830;2022-07-26T08:42:47;22.27;;;17.00;;
44434;SDS011;30138;20.964;105.830;2022-07-26T08:47:56;23.20;;;17.20;;
44434;SDS011;30138;20.964;105.830;2022-07-26T08:53:14;18.92;;;15.93;;
44434;SDS011;30138;20.964;105.830;2022-07-26T08:59:17;22.00;;;16.48;;
44434;SDS011;30138;20.964;105.830;2022-07-26T09:04:26;17.80;;;15.32;;
44434;SDS011;30138;20.964;105.830;2022-07-26T09:09:54;20.08;;;15.65;;
44434;SDS011;30138;20.964;105.830;2022-07-26T09:15:05;17.65;;;15.48;;
44434;SDS011;30138;20.964;105.830;2022-07-26T09:20:25;19.83;;;14.35;;
44434;SDS011;30138;20.964;105.830;2022-07-26T09:25:34;16.10;;;14.07;;
44434;SDS011;30138;20.964;105.830;2022-07-26T09:30:42;15.30;;;13.27;;
44434;SDS011;30138;20.964;105.830;2022-07-26T09:36:02;15.48;;;13.07;;
44434;SDS011;30138;20.964;105.830;2022-07-26T09:41:16;15.65;;;13.50;;
44434;SDS011;30138;20.964;105.830;2022-07-26T09:46:24;15.57;;;12.38;;
44434;SDS011;30138;20.964;105.830;2022-07-26T09:51:36;21.95;;;13.00;;
44434;SDS011;30138;20.964;105.830;2022-07-26T09:56:44;14.95;;;12.35;;
44434;SDS011;30138;20.964;105.830;2022-07-26T10:01:53;16.27;;;12.38;;
44434;SDS011;30138;20.964;105.830;2022-07-26T10:07:04;14.00;;;12.50;;
44434;SDS011;30138;20.964;105.830;2022-07-26T10:12:12;16.27;;;12.18;;
44434;SDS011;30138;20.964;105.830;2022-07-26T10:22:54;14.30;;;11.20;;
44434;SDS011;30138;20.964;105.830;2022-07-26T10:28:02;17.43;;;11.40;;
44434;SDS011;30138;20.964;105.830;2022-07-26T10:33:10;15.88;;;11.27;;
44434;SDS011;30138;20.964;105.830;2022-07-26T10:38:26;16.95;;;11.68;;
44434;SDS011;30138;20.964;105.830;2022-07-26T10:43:33;13.15;;;10.65;;
44434;SDS011;30138;20.964;105.830;2022-07-26T10:48:54;13.15;;;10.23;;
44434;SDS011;30138;20.964;105.830;2022-07-26T10:54:06;13.35;;;10.25;;
44434;SDS011;30138;20.964;105.830;2022-07-26T10:59:29;11.98;;;10.27;;
44434;SDS011;30138;20.964;105.830;2022-07-26T11:04:40;16.30;;;10.60;;
44434;SDS011;30138;20.964;105.830;2022-07-26T11:09:50;14.80;;;10.32;;
44434;SDS011;30138;20.964;105.830;2022-07-26T11:15:12;17.73;;;11.40;;
44434;SDS011;30138;20.964;105.830;2022-07-26T11:20:24;17.73;;;11.25;;
44434;SDS011;30138;20.964;105.830;2022-07-26T11:25:34;18.98;;;11.20;;
44434;SDS011;30138;20.964;105.830;2022-07-26T11:30:55;19.27;;;12.27;;
44434;SDS011;30138;20.964;105.830;2022-07-26T11:36:03;20.38;;;12.45;;
44434;SDS011;30138;20.964;105.830;2022-07-26T11:41:14;24.08;;;13.52;;
44434;SDS011;30138;20.964;105.830;2022-07-26T11:46:36;19.52;;;13.18;;
44434;SDS011;30138;20.964;105.830;2022-07-26T11:51:49;22.05;;;12.32;;
44434;SDS011;30138;20.964;105.830;2022-07-26T11:57:03;19.52;;;11.63;;
44434;SDS011;30138;20.964;105.830;2022-07-26T12:02:11;24.08;;;11.82;;
44434;SDS011;30138;20.964;105.830;2022-07-26T12:07:20;18.58;;;11.27;;
44434;SDS011;30138;20.964;105.830;2022-07-26T12:12:30;18.13;;;11.98;;
44434;SDS011;30138;20.964;105.830;2022-07-26T12:17:38;21.20;;;12.50;;
44434;SDS011;30138;20.964;105.830;2022-07-26T12:23:04;20.90;;;12.55;;
44434;SDS011;30138;20.964;105.830;2022-07-26T12:28:14;22.73;;;13.00;;
44434;SDS011;30138;20.964;105.830;2022-07-26T12:33:48;20.77;;;13.55;;
44434;SDS011;30138;20.964;105.830;2022-07-26T12:38:57;26.67;;;14.43;;
44434;SDS011;30138;20.964;105.830;2022-07-26T12:44:07;25.10;;;15.20;;
44434;SDS011;30138;20.964;105.830;2022-07-26T12:49:15;26.97;;;15.23;;
44434;SDS011;30138;20.964;105.830;2022-07-26T12:54:23;26.95;;;15.75;;
44434;SDS011;30138;20.964;105.830;2022-07-26T12:59:34;30.30;;;17.75;;
44434;SDS011;30138;20.964;105.830;2022-07-26T13:04:43;31.23;;;19.02;;
44434;SDS011;30138;20.964;105.830;2022-07-26T13:09:51;34.35;;;20.45;;
44434;SDS011;30138;20.964;105.830;2022-07-26T13:15:02;32.08;;;20.00;;
44434;SDS011;30138;20.964;105.830;2022-07-26T13:20:11;35.30;;;21.20;;
44434;SDS011;30138;20.964;105.830;2022-07-26T13:25:18;29.85;;;20.20;;
44434;SDS011;30138;20.964;105.830;2022-07-26T13:30:28;41.88;;;22.17;;
44434;SDS011;30138;20.964;105.830;2022-07-26T13:35:37;39.43;;;20.87;;
44434;SDS011;30138;20.964;105.830;2022-07-26T13:40:44;35.47;;;19.08;;
44434;SDS011;30138;20.964;105.830;2022-07-26T13:45:54;30.70;;;18.08;;
44434;SDS011;30138;20.964;105.830;2022-07-26T13:51:02;31.90;;;17.83;;
44434;SDS011;30138;20.964;105.830;2022-07-26T13:56:10;30.52;;;16.20;;
44434;SDS011;30138;20.964;105.830;2022-07-26T14:01:20;27.27;;;15.30;;
44434;SDS011;30138;20.964;105.830;2022-07-26T14:06:27;26.50;;;15.65;;
44434;SDS011;30138;20.964;105.830;2022-07-26T14:11:39;31.88;;;15.70;;
44434;SDS011;30138;20.964;105.830;2022-07-26T14:16:50;27.80;;;15.43;;
44434;SDS011;30138;20.964;105.830;2022-07-26T14:21:58;26.40;;;14.88;;
44434;SDS011;30138;20.964;105.830;2022-07-26T14:27:06;24.77;;;15.43;;
44434;SDS011;30138;20.964;105.830;2022-07-26T14:32:15;27.80;;;15.48;;
44434;SDS011;30138;20.964;105.830;2022-07-26T14:37:22;25.02;;;15.40;;
44434;SDS011;30138;20.964;105.830;2022-07-26T14:42:31;26.48;;;15.13;;
44434;SDS011;30138;20.964;105.830;2022-07-26T14:47:43;28.85;;;15.10;;
44434;SDS011;30138;20.964;105.830;2022-07-26T14:52:51;27.00;;;14.52;;
44434;SDS011;30138;20.964;105.830;2022-07-26T14:58:00;23.95;;;13.35;;
44434;SDS011;30138;20.964;105.830;2022-07-26T15:03:10;32.85;;;14.02;;
44434;SDS011;30138;20.964;105.830;2022-07-26T15:08:17;26.45;;;15.05;;
44434;SDS011;30138;20.964;105.830;2022-07-26T15:13:25;22.17;;;13.73;;
44434;SDS011;30138;20.964;105.830;2022-07-26T15:18:35;19.92;;;13.23;;
44434;SDS011;30138;20.964;105.830;2022-07-26T15:23:42;28.92;;;13.80;;
44434;SDS011;30138;20.964;105.830;2022-07-26T15:28:55;24.10;;;13.00;;
44434;SDS011;30138;20.964;105.830;2022-07-26T15:34:04;23.20;;;13.95;;
44434;SDS011;30138;20.964;105.830;2022-07-26T15:39:12;23.43;;;13.60;;
44434;SDS011;30138;20.964;105.830;2022-07-26T15:44:19;31.95;;;14.52;;
44434;SDS011;30138;20.964;105.830;2022-07-26T15:49:29;28.42;;;14.43;;
44434;SDS011;30138;20.964;105.830;2022-07-26T15:54:38;25.33;;;14.30;;
44434;SDS011;30138;20.964;105.830;2022-07-26T15:59:47;31.45;;;13.05;;
44434;SDS011;30138;20.964;105.830;2022-07-26T16:04:58;27.73;;;13.90;;
44434;SDS011;30138;20.964;105.830;2022-07-26T16:10:06;18.38;;;12.43;;
44434;SDS011;30138;20.964;105.830;2022-07-26T16:15:14;24.83;;;13.27;;
44434;SDS011;30138;20.964;105.830;2022-07-26T16:20:23;19.63;;;11.95;;
44434;SDS011;30138;20.964;105.830;2022-07-26T16:25:31;20.27;;;11.95;;
44434;SDS011;30138;20.964;105.830;2022-07-26T16:30:39;17.25;;;10.85;;
44434;SDS011;30138;20.964;105.830;2022-07-26T16:35:49;15.23;;;11.05;;
44434;SDS011;30138;20.964;105.830;2022-07-26T16:40:58;19.67;;;10.95;;
44434;SDS011;30138;20.964;105.830;2022-07-26T16:46:06;23.02;;;11.50;;
44434;SDS011;30138;20.964;105.830;2022-07-26T16:51:16;17.02;;;10.70;;
44434;SDS011;30138;20.964;105.830;2022-07-26T16:56:24;19.38;;;11.32;;
44434;SDS011;30138;20.964;105.830;2022-07-26T17:01:32;16.77;;;11.07;;
44434;SDS011;30138;20.964;105.830;2022-07-26T17:06:42;21.52;;;12.00;;
44434;SDS011;30138;20.964;105.830;2022-07-26T17:11:50;20.13;;;11.77;;
44434;SDS011;30138;20.964;105.830;2022-07-26T17:16:57;20.23;;;13.02;;
44434;SDS011;30138;20.964;105.830;2022-07-26T17:22:07;16.48;;;11.38;;
44434;SDS011;30138;20.964;105.830;2022-07-26T17:27:15;18.77;;;12.77;;
44434;SDS011;30138;20.964;105.830;2022-07-26T17:32:23;20.63;;;13.32;;
44434;SDS011;30138;20.964;105.830;2022-07-26T17:37:33;22.23;;;13.68;;
44434;SDS011;30138;20.964;105.830;2022-07-26T17:42:40;22.23;;;15.32;;
44434;SDS011;30138;20.964;105.830;2022-07-26T17:47:47;22.95;;;16.08;;
44434;SDS011;30138;20.964;105.830;2022-07-26T17:52:57;30.60;;;16.88;;
44434;SDS011;30138;20.964;105.830;2022-07-26T17:58:05;27.98;;;17.23;;
44434;SDS011;30138;20.964;105.830;2022-07-26T18:03:12;29.50;;;20.35;;
44434;SDS011;30138;20.964;105.830;2022-07-26T18:08:22;33.15;;;22.48;;
44434;SDS011;30138;20.964;105.830;2022-07-26T18:13:29;33.45;;;21.70;;
44434;SDS011;30138;20.964;105.830;2022-07-26T18:18:37;31.38;;;22.23;;
44434;SDS011;30138;20.964;105.830;2022-07-26T18:23:46;32.17;;;21.20;;
44434;SDS011;30138;20.964;105.830;2022-07-26T18:28:53;30.95;;;19.95;;
44434;SDS011;30138;20.964;105.830;2022-07-26T18:34:00;29.35;;;19.42;;
44434;SDS011;30138;20.964;105.830;2022-07-26T18:39:09;28.80;;;19.08;;
44434;SDS011;30138;20.964;105.830;2022-07-26T18:44:18;32.80;;;20.52;;
44434;SDS011;30138;20.964;105.830;2022-07-26T18:49:25;27.58;;;19.20;;
44434;SDS011;30138;20.964;105.830;2022-07-26T18:54:35;24.25;;;19.27;;
44434;SDS011;30138;20.964;105.830;2022-07-26T19:04:50;23.20;;;17.70;;
44434;SDS011;30138;20.964;105.830;2022-07-26T19:09:59;27.05;;;17.75;;
44434;SDS011;30138;20.964;105.830;2022-07-26T19:15:09;21.33;;;16.73;;
44434;SDS011;30138;20.964;105.830;2022-07-26T19:20:16;24.38;;;16.67;;
44434;SDS011;30138;20.964;105.830;2022-07-26T19:25:26;21.98;;;16.17;;
44434;SDS011;30138;20.964;105.830;2022-07-26T19:30:33;26.65;;;17.17;;
44434;SDS011;30138;20.964;105.830;2022-07-26T19:35:41;23.00;;;16.10;;
44434;SDS011;30138;20.964;105.830;2022-07-26T19:40:51;20.40;;;16.05;;
44434;SDS011;30138;20.964;105.830;2022-07-26T19:45:58;25.02;;;16.17;;
44434;SDS011;30138;20.964;105.830;2022-07-26T19:51:06;24.08;;;15.40;;
44434;SDS011;30138;20.964;105.830;2022-07-26T19:56:15;22.00;;;16.02;;
44434;SDS011;30138;20.964;105.830;2022-07-26T20:01:22;22.83;;;15.45;;
44434;SDS011;30138;20.964;105.830;2022-07-26T20:06:29;21.85;;;15.75;;
44434;SDS011;30138;20.964;105.830;2022-07-26T20:11:39;23.13;;;16.13;;
44434;SDS011;30138;20.964;105.830;2022-07-26T20:16:51;25.88;;;16.42;;
44434;SDS011;30138;20.964;105.830;2022-07-26T20:21:59;25.70;;;15.90;;
44434;SDS011;30138;20.964;105.830;2022-07-26T20:27:08;24.08;;;15.02;;
44434;SDS011;30138;20.964;105.830;2022-07-26T20:32:16;24.75;;;15.98;;
44434;SDS011;30138;20.964;105.830;2022-07-26T20:37:23;24.65;;;15.23;;
44434;SDS011;30138;20.964;105.830;2022-07-26T20:42:33;21.98;;;15.57;;
44434;SDS011;30138;20.964;105.830;2022-07-26T20:47:42;23.33;;;15.25;;
44434;SDS011;30138;20.964;105.830;2022-07-26T20:52:49;24.77;;;15.20;;
44434;SDS011;30138;20.964;105.830;2022-07-26T20:57:59;26.05;;;15.77;;
44434;SDS011;30138;20.964;105.830;2022-07-26T21:03:06;25.25;;;15.80;;
44434;SDS011;30138;20.964;105.830;2022-07-26T21:08:15;27.75;;;15.77;;
44434;SDS011;30138;20.964;105.830;2022-07-26T21:13:24;23.33;;;15.00;;
44434;SDS011;30138;20.964;105.830;2022-07-26T21:18:34;28.67;;;15.48;;
44434;SDS011;30138;20.964;105.830;2022-07-26T21:23:43;23.05;;;16.02;;
44434;SDS011;30138;20.964;105.830;2022-07-26T21:28:54;25.33;;;16.17;;
44434;SDS011;30138;20.964;105.830;2022-07-26T21:34:02;21.77;;;15.70;;
44434;SDS011;30138;20.964;105.830;2022-07-26T21:39:10;22.27;;;16.10;;
44434;SDS011;30138;20.964;105.830;2022-07-26T21:44:20;22.98;;;15.98;;
44434;SDS011;30138;20.964;105.830;2022-07-26T21:49:28;23.60;;;16.50;;
44434;SDS011;30138;20.964;105.830;2022-07-26T21:54:35;27.50;;;16.38;;
44434;SDS011;30138;20.964;105.830;2022-07-26T21:59:45;31.85;;;17.25;;
44434;SDS011;30138;20.964;105.830;2022-07-26T22:04:53;23.80;;;16.27;;
44434;SDS011;30138;20.964;105.830;2022-07-26T22:10:01;27.92;;;15.45;;
44434;SDS011;30138;20.964;105.830;2022-07-26T22:15:11;26.58;;;16.80;;
44434;SDS011;30138;20.964;105.830;2022-07-26T22:20:19;28.65;;;16.05;;
44434;SDS011;30138;20.964;105.830;2022-07-26T22:25:32;30.48;;;16.67;;
44434;SDS011;30138;20.964;105.830;2022-07-26T22:30:42;25.92;;;16.38;;
44434;SDS011;30138;20.964;105.830;2022-07-26T22:35:50;26.70;;;16.60;;
44434;SDS011;30138;20.964;105.830;2022-07-26T22:40:58;26.13;;;16.50;;
44434;SDS011;30138;20.964;105.830;2022-07-26T22:46:07;30.40;;;16.65;;
44434;SDS011;30138;20.964;105.830;2022-07-26T22:51:14;25.98;;;16.08;;
44434;SDS011;30138;20.964;105.830;2022-07-26T22:56:22;27.05;;;16.50;;
44434;SDS011;30138;20.964;105.830;2022-07-26T23:01:32;29.30;;;16.42;;
44434;SDS011;30138;20.964;105.830;2022-07-26T23:06:40;25.33;;;17.42;;
44434;SDS011;30138;20.964;105.830;2022-07-26T23:11:48;30.90;;;16.88;;
44434;SDS011;30138;20.964;105.830;2022-07-26T23:16:58;28.10;;;17.45;;
44434;SDS011;30138;20.964;105.830;2022-07-26T23:22:06;29.67;;;17.95;;
44434;SDS011;30138;20.964;105.830;2022-07-26T23:27:13;26.45;;;16.33;;
44434;SDS011;30138;20.964;105.830;2022-07-26T23:32:23;24.88;;;16.52;;
44434;SDS011;30138;20.964;105.830;2022-07-26T23:37:30;28.55;;;17.10;;
44434;SDS011;30138;20.964;105.830;2022-07-26T23:42:37;25.98;;;17.98;;
44434;SDS011;30138;20.964;105.830;2022-07-26T23:47:47;29.05;;;18.20;;
44434;SDS011;30138;20.964;105.830;2022-07-26T23:52:54;31.08;;;18.75;;
44434;SDS011;30138;20.964;105.830;2022-07-26T23:58:03;30.02;;;18.15;;
